sensor_id;sensor_type;location;lat;lon;timestamp;temperature;humidity
16402;DHT22;8310;44.626;11.176;2022-08-30T00:02:37;26.80;51.20
16402;DHT22;8310;44.626;11.176;2022-08-30T00:05:05;26.80;51.30
16402;DHT22;8310;44.626;11.176;2022-08-30T00:07:32;26.80;51.40
16402;DHT22;8310;44.626;11.176;2022-08-30T00:10:00;26.80;51.50
16402;DHT22;8310;44.626;11.176;2022-08-30T00:12:28;26.70;51.50
16402;DHT22;8310;44.626;11.176;2022-08-30T00:14:58;26.70;51.60
16402;DHT22;8310;44.626;11.176;2022-08-30T00:17:26;26.80;51.70
16402;DHT22;8310;44.626;11.176;2022-08-30T00:19:55;26.80;51.70
16402;DHT22;8310;44.626;11.176;2022-08-30T00:22:22;26.80;51.60
16402;DHT22;8310;44.626;11.176;2022-08-30T00:24:50;26.80;51.50
16402;DHT22;8310;44.626;11.176;2022-08-30T00:27:17;26.80;51.50
16402;DHT22;8310;44.626;11.176;2022-08-30T00:29:45;26.70;51.50
16402;DHT22;8310;44.626;11.176;2022-08-30T00:32:12;26.70;51.50
16402;DHT22;8310;44.626;11.176;2022-08-30T00:34:40;26.70;51.60
16402;DHT22;8310;44.626;11.176;2022-08-30T00:37:10;26.60;51.50
16402;DHT22;8310;44.626;11.176;2022-08-30T00:39:37;26.60;51.50
16402;DHT22;8310;44.626;11.176;2022-08-30T00:42:06;26.60;51.60
16402;DHT22;8310;44.626;11.176;2022-08-30T00:44:34;26.60;51.60
16402;DHT22;8310;44.626;11.176;2022-08-30T00:47:02;26.50;51.50
16402;DHT22;8310;44.626;11.176;2022-08-30T00:49:32;26.50;51.50
16402;DHT22;8310;44.626;11.176;2022-08-30T00:52:00;26.40;51.50
16402;DHT22;8310;44.626;11.176;2022-08-30T00:54:31;26.40;51.50
16402;DHT22;8310;44.626;11.176;2022-08-30T00:57:00;26.40;51.60
16402;DHT22;8310;44.626;11.176;2022-08-30T00:59:28;26.30;51.70
16402;DHT22;8310;44.626;11.176;2022-08-30T01:01:57;26.40;51.80
16402;DHT22;8310;44.626;11.176;2022-08-30T01:04:25;26.40;51.90
16402;DHT22;8310;44.626;11.176;2022-08-30T01:06:54;26.40;51.90
16402;DHT22;8310;44.626;11.176;2022-08-30T01:09:23;26.40;51.90
16402;DHT22;8310;44.626;11.176;2022-08-30T01:11:52;26.40;51.80
16402;DHT22;8310;44.626;11.176;2022-08-30T01:14:20;26.30;51.70
16402;DHT22;8310;44.626;11.176;2022-08-30T01:16:49;26.20;51.70
16402;DHT22;8310;44.626;11.176;2022-08-30T01:19:32;26.20;51.70
16402;DHT22;8310;44.626;11.176;2022-08-30T01:22:05;26.20;51.70
16402;DHT22;8310;44.626;11.176;2022-08-30T01:24:36;26.20;51.70
16402;DHT22;8310;44.626;11.176;2022-08-30T01:27:05;26.10;51.70
16402;DHT22;8310;44.626;11.176;2022-08-30T01:29:33;26.10;51.90
16402;DHT22;8310;44.626;11.176;2022-08-30T01:32:00;26.10;52.00
16402;DHT22;8310;44.626;11.176;2022-08-30T01:34:28;26.10;52.00
16402;DHT22;8310;44.626;11.176;2022-08-30T01:36:56;26.10;52.00
16402;DHT22;8310;44.626;11.176;2022-08-30T01:39:24;26.10;51.90
16402;DHT22;8310;44.626;11.176;2022-08-30T01:41:53;26.10;51.90
16402;DHT22;8310;44.626;11.176;2022-08-30T01:44:21;26.00;51.80
16402;DHT22;8310;44.626;11.176;2022-08-30T01:46:48;25.90;51.80
16402;DHT22;8310;44.626;11.176;2022-08-30T01:49:17;25.80;51.90
16402;DHT22;8310;44.626;11.176;2022-08-30T01:51:45;25.80;51.90
16402;DHT22;8310;44.626;11.176;2022-08-30T01:54:12;25.80;52.00
16402;DHT22;8310;44.626;11.176;2022-08-30T01:56:40;25.80;52.00
16402;DHT22;8310;44.626;11.176;2022-08-30T01:59:09;25.70;52.00
16402;DHT22;8310;44.626;11.176;2022-08-30T02:01:37;25.70;52.00
16402;DHT22;8310;44.626;11.176;2022-08-30T02:04:07;25.70;52.10
16402;DHT22;8310;44.626;11.176;2022-08-30T02:06:37;25.70;52.10
16402;DHT22;8310;44.626;11.176;2022-08-30T02:09:05;25.70;52.20
16402;DHT22;8310;44.626;11.176;2022-08-30T02:11:33;25.70;52.20
16402;DHT22;8310;44.626;11.176;2022-08-30T02:14:01;25.70;52.20
16402;DHT22;8310;44.626;11.176;2022-08-30T02:16:31;25.70;52.20
16402;DHT22;8310;44.626;11.176;2022-08-30T02:18:58;25.70;52.30
16402;DHT22;8310;44.626;11.176;2022-08-30T02:21:27;25.60;52.20
16402;DHT22;8310;44.626;11.176;2022-08-30T02:23:55;25.60;52.20
16402;DHT22;8310;44.626;11.176;2022-08-30T02:26:28;25.50;52.20
16402;DHT22;8310;44.626;11.176;2022-08-30T02:28:56;25.50;52.30
16402;DHT22;8310;44.626;11.176;2022-08-30T02:31:23;25.50;52.30
16402;DHT22;8310;44.626;11.176;2022-08-30T02:33:53;25.50;52.30
16402;DHT22;8310;44.626;11.176;2022-08-30T02:36:21;25.50;52.30
16402;DHT22;8310;44.626;11.176;2022-08-30T02:38:50;25.50;52.30
16402;DHT22;8310;44.626;11.176;2022-08-30T02:41:19;25.50;52.40
16402;DHT22;8310;44.626;11.176;2022-08-30T02:43:48;25.50;52.30
16402;DHT22;8310;44.626;11.176;2022-08-30T02:46:17;25.50;52.40
16402;DHT22;8310;44.626;11.176;2022-08-30T02:48:44;25.50;52.40
16402;DHT22;8310;44.626;11.176;2022-08-30T02:51:13;25.50;52.40
16402;DHT22;8310;44.626;11.176;2022-08-30T02:53:45;25.50;52.50
16402;DHT22;8310;44.626;11.176;2022-08-30T02:56:14;25.50;52.50
16402;DHT22;8310;44.626;11.176;2022-08-30T02:58:43;25.50;52.50
16402;DHT22;8310;44.626;11.176;2022-08-30T03:01:12;25.50;52.50
16402;DHT22;8310;44.626;11.176;2022-08-30T03:03:41;25.50;52.50
16402;DHT22;8310;44.626;11.176;2022-08-30T03:06:10;25.60;52.60
16402;DHT22;8310;44.626;11.176;2022-08-30T03:08:42;25.50;52.50
16402;DHT22;8310;44.626;11.176;2022-08-30T03:11:09;25.50;52.50
16402;DHT22;8310;44.626;11.176;2022-08-30T03:13:38;25.50;52.60
16402;DHT22;8310;44.626;11.176;2022-08-30T03:16:06;25.50;52.60
16402;DHT22;8310;44.626;11.176;2022-08-30T03:18:33;25.50;52.60
16402;DHT22;8310;44.626;11.176;2022-08-30T03:21:01;25.50;52.60
16402;DHT22;8310;44.626;11.176;2022-08-30T03:23:28;25.50;52.60
16402;DHT22;8310;44.626;11.176;2022-08-30T03:25:57;25.50;52.60
16402;DHT22;8310;44.626;11.176;2022-08-30T03:28:25;25.40;52.50
16402;DHT22;8310;44.626;11.176;2022-08-30T03:30:52;25.40;52.60
16402;DHT22;8310;44.626;11.176;2022-08-30T03:33:24;25.40;52.60
16402;DHT22;8310;44.626;11.176;2022-08-30T03:35:53;25.30;52.60
16402;DHT22;8310;44.626;11.176;2022-08-30T03:38:21;25.30;52.60
16402;DHT22;8310;44.626;11.176;2022-08-30T03:40:50;25.30;52.70
16402;DHT22;8310;44.626;11.176;2022-08-30T03:43:20;25.30;52.60
16402;DHT22;8310;44.626;11.176;2022-08-30T03:45:47;25.20;52.30
16402;DHT22;8310;44.626;11.176;2022-08-30T03:48:14;25.10;52.20
16402;DHT22;8310;44.626;11.176;2022-08-30T03:50:42;25.00;52.20
16402;DHT22;8310;44.626;11.176;2022-08-30T03:53:10;24.90;52.30
16402;DHT22;8310;44.626;11.176;2022-08-30T03:55:37;24.80;52.30
16402;DHT22;8310;44.626;11.176;2022-08-30T03:58:05;24.80;52.30
16402;DHT22;8310;44.626;11.176;2022-08-30T04:00:34;24.70;52.20
16402;DHT22;8310;44.626;11.176;2022-08-30T04:03:02;24.60;52.30
16402;DHT22;8310;44.626;11.176;2022-08-30T04:05:29;24.60;52.40
16402;DHT22;8310;44.626;11.176;2022-08-30T04:07:57;24.60;52.40
16402;DHT22;8310;44.626;11.176;2022-08-30T04:10:26;24.50;52.40
16402;DHT22;8310;44.626;11.176;2022-08-30T04:12:53;24.50;52.40
16402;DHT22;8310;44.626;11.176;2022-08-30T04:15:22;24.50;52.50
16402;DHT22;8310;44.626;11.176;2022-08-30T04:17:51;24.50;52.60
16402;DHT22;8310;44.626;11.176;2022-08-30T04:20:20;24.50;52.70
16402;DHT22;8310;44.626;11.176;2022-08-30T04:22:47;24.60;52.80
16402;DHT22;8310;44.626;11.176;2022-08-30T04:25:15;24.60;52.80
16402;DHT22;8310;44.626;11.176;2022-08-30T04:27:43;24.60;52.80
16402;DHT22;8310;44.626;11.176;2022-08-30T04:30:12;24.60;52.70
16402;DHT22;8310;44.626;11.176;2022-08-30T04:32:41;24.50;52.60
16402;DHT22;8310;44.626;11.176;2022-08-30T04:35:10;24.50;52.60
16402;DHT22;8310;44.626;11.176;2022-08-30T04:37:38;24.40;52.60
16402;DHT22;8310;44.626;11.176;2022-08-30T04:40:07;24.40;52.60
16402;DHT22;8310;44.626;11.176;2022-08-30T04:42:36;24.30;52.70
16402;DHT22;8310;44.626;11.176;2022-08-30T04:45:06;24.30;52.80
16402;DHT22;8310;44.626;11.176;2022-08-30T04:47:38;24.30;52.90
16402;DHT22;8310;44.626;11.176;2022-08-30T04:50:10;24.30;52.90
16402;DHT22;8310;44.626;11.176;2022-08-30T04:52:38;24.30;52.90
16402;DHT22;8310;44.626;11.176;2022-08-30T04:55:07;24.40;53.00
16402;DHT22;8310;44.626;11.176;2022-08-30T04:57:35;24.30;53.10
16402;DHT22;8310;44.626;11.176;2022-08-30T05:00:05;24.30;53.10
16402;DHT22;8310;44.626;11.176;2022-08-30T05:02:33;24.30;53.10
16402;DHT22;8310;44.626;11.176;2022-08-30T05:05:01;24.30;53.10
16402;DHT22;8310;44.626;11.176;2022-08-30T05:07:47;24.30;53.80
16402;DHT22;8310;44.626;11.176;2022-08-30T05:10:15;24.40;53.20
16402;DHT22;8310;44.626;11.176;2022-08-30T05:12:42;24.40;53.30
16402;DHT22;8310;44.626;11.176;2022-08-30T05:15:11;24.40;53.30
16402;DHT22;8310;44.626;11.176;2022-08-30T05:17:39;24.40;53.30
16402;DHT22;8310;44.626;11.176;2022-08-30T05:20:10;24.40;53.30
16402;DHT22;8310;44.626;11.176;2022-08-30T05:22:38;24.40;53.40
16402;DHT22;8310;44.626;11.176;2022-08-30T05:25:08;24.40;53.40
16402;DHT22;8310;44.626;11.176;2022-08-30T05:27:36;24.40;53.50
16402;DHT22;8310;44.626;11.176;2022-08-30T05:30:07;24.40;53.40
16402;DHT22;8310;44.626;11.176;2022-08-30T05:32:35;24.40;53.40
16402;DHT22;8310;44.626;11.176;2022-08-30T05:35:04;24.40;53.50
16402;DHT22;8310;44.626;11.176;2022-08-30T05:37:33;24.40;53.60
16402;DHT22;8310;44.626;11.176;2022-08-30T05:40:00;24.40;53.60
16402;DHT22;8310;44.626;11.176;2022-08-30T05:42:30;24.50;53.70
16402;DHT22;8310;44.626;11.176;2022-08-30T05:44:57;24.50;53.80
16402;DHT22;8310;44.626;11.176;2022-08-30T05:47:25;24.50;53.80
16402;DHT22;8310;44.626;11.176;2022-08-30T05:49:53;24.50;53.80
16402;DHT22;8310;44.626;11.176;2022-08-30T05:52:20;24.60;53.90
16402;DHT22;8310;44.626;11.176;2022-08-30T05:54:51;24.60;54.00
16402;DHT22;8310;44.626;11.176;2022-08-30T05:57:20;24.60;53.90
16402;DHT22;8310;44.626;11.176;2022-08-30T05:59:49;24.60;53.90
16402;DHT22;8310;44.626;11.176;2022-08-30T06:02:18;24.60;53.70
16402;DHT22;8310;44.626;11.176;2022-08-30T06:04:46;24.60;53.60
16402;DHT22;8310;44.626;11.176;2022-08-30T06:07:14;24.50;53.70
16402;DHT22;8310;44.626;11.176;2022-08-30T06:09:42;24.50;53.80
16402;DHT22;8310;44.626;11.176;2022-08-30T06:12:09;24.50;53.90
16402;DHT22;8310;44.626;11.176;2022-08-30T06:14:40;24.50;54.00
16402;DHT22;8310;44.626;11.176;2022-08-30T06:17:09;24.50;54.10
16402;DHT22;8310;44.626;11.176;2022-08-30T06:19:37;24.60;54.40
16402;DHT22;8310;44.626;11.176;2022-08-30T06:22:04;24.70;54.90
16402;DHT22;8310;44.626;11.176;2022-08-30T06:24:32;24.90;55.00
16402;DHT22;8310;44.626;11.176;2022-08-30T06:27:01;25.10;54.80
16402;DHT22;8310;44.626;11.176;2022-08-30T06:29:29;25.20;54.70
16402;DHT22;8310;44.626;11.176;2022-08-30T06:31:56;25.30;54.70
16402;DHT22;8310;44.626;11.176;2022-08-30T06:34:27;25.30;54.60
16402;DHT22;8310;44.626;11.176;2022-08-30T06:36:54;25.40;54.70
16402;DHT22;8310;44.626;11.176;2022-08-30T06:39:22;25.40;54.70
16402;DHT22;8310;44.626;11.176;2022-08-30T06:41:50;25.40;54.80
16402;DHT22;8310;44.626;11.176;2022-08-30T06:44:18;25.50;54.90
16402;DHT22;8310;44.626;11.176;2022-08-30T06:46:46;25.60;55.00
16402;DHT22;8310;44.626;11.176;2022-08-30T06:49:14;25.60;55.10
16402;DHT22;8310;44.626;11.176;2022-08-30T06:51:43;25.70;55.10
16402;DHT22;8310;44.626;11.176;2022-08-30T06:54:11;25.80;55.20
16402;DHT22;8310;44.626;11.176;2022-08-30T06:56:39;25.90;55.20
16402;DHT22;8310;44.626;11.176;2022-08-30T06:59:07;26.00;55.30
16402;DHT22;8310;44.626;11.176;2022-08-30T07:01:35;26.00;55.30
16402;DHT22;8310;44.626;11.176;2022-08-30T07:04:03;26.10;55.30
16402;DHT22;8310;44.626;11.176;2022-08-30T07:06:32;26.20;55.70
16402;DHT22;8310;44.626;11.176;2022-08-30T07:09:01;26.30;55.50
16402;DHT22;8310;44.626;11.176;2022-08-30T07:11:31;26.40;55.60
16402;DHT22;8310;44.626;11.176;2022-08-30T07:13:59;26.60;55.70
16402;DHT22;8310;44.626;11.176;2022-08-30T07:16:27;26.70;55.70
16402;DHT22;8310;44.626;11.176;2022-08-30T07:18:55;26.80;55.70
16402;DHT22;8310;44.626;11.176;2022-08-30T07:21:25;26.80;55.60
16402;DHT22;8310;44.626;11.176;2022-08-30T07:23:55;26.90;56.40
16402;DHT22;8310;44.626;11.176;2022-08-30T07:26:27;27.10;55.80
16402;DHT22;8310;44.626;11.176;2022-08-30T07:28:55;27.20;55.90
16402;DHT22;8310;44.626;11.176;2022-08-30T07:31:23;27.30;56.10
16402;DHT22;8310;44.626;11.176;2022-08-30T07:33:51;27.40;56.00
16402;DHT22;8310;44.626;11.176;2022-08-30T07:36:19;27.60;56.20
16402;DHT22;8310;44.626;11.176;2022-08-30T07:38:47;27.70;56.20
16402;DHT22;8310;44.626;11.176;2022-08-30T07:41:17;27.80;56.30
16402;DHT22;8310;44.626;11.176;2022-08-30T07:43:47;27.90;56.20
16402;DHT22;8310;44.626;11.176;2022-08-30T07:46:15;28.00;56.10
16402;DHT22;8310;44.626;11.176;2022-08-30T07:48:42;28.10;56.20
16402;DHT22;8310;44.626;11.176;2022-08-30T07:51:12;28.20;56.20
16402;DHT22;8310;44.626;11.176;2022-08-30T07:53:41;28.20;56.00
16402;DHT22;8310;44.626;11.176;2022-08-30T07:56:11;28.30;56.10
16402;DHT22;8310;44.626;11.176;2022-08-30T07:58:38;28.30;56.10
16402;DHT22;8310;44.626;11.176;2022-08-30T08:01:09;28.40;56.80
16402;DHT22;8310;44.626;11.176;2022-08-30T08:03:39;28.50;56.20
16402;DHT22;8310;44.626;11.176;2022-08-30T08:06:08;28.50;55.90
16402;DHT22;8310;44.626;11.176;2022-08-30T08:08:38;28.50;55.90
16402;DHT22;8310;44.626;11.176;2022-08-30T08:11:06;28.50;55.80
16402;DHT22;8310;44.626;11.176;2022-08-30T08:13:35;28.60;55.80
16402;DHT22;8310;44.626;11.176;2022-08-30T08:16:03;28.60;56.00
16402;DHT22;8310;44.626;11.176;2022-08-30T08:18:33;28.60;56.10
16402;DHT22;8310;44.626;11.176;2022-08-30T08:21:01;28.70;56.10
16402;DHT22;8310;44.626;11.176;2022-08-30T08:23:29;28.80;56.00
16402;DHT22;8310;44.626;11.176;2022-08-30T08:25:57;28.80;56.10
16402;DHT22;8310;44.626;11.176;2022-08-30T08:28:24;28.90;56.30
16402;DHT22;8310;44.626;11.176;2022-08-30T08:30:52;29.00;56.60
16402;DHT22;8310;44.626;11.176;2022-08-30T08:33:22;29.20;56.90
16402;DHT22;8310;44.626;11.176;2022-08-30T08:35:52;29.40;56.70
16402;DHT22;8310;44.626;11.176;2022-08-30T08:38:19;29.50;56.80
16402;DHT22;8310;44.626;11.176;2022-08-30T08:40:58;29.70;57.20
16402;DHT22;8310;44.626;11.176;2022-08-30T08:43:33;29.90;57.30
16402;DHT22;8310;44.626;11.176;2022-08-30T08:46:05;30.20;57.50
16402;DHT22;8310;44.626;11.176;2022-08-30T08:48:39;30.40;57.40
16402;DHT22;8310;44.626;11.176;2022-08-30T08:51:11;30.50;57.20
16402;DHT22;8310;44.626;11.176;2022-08-30T08:54:00;30.60;57.00
16402;DHT22;8310;44.626;11.176;2022-08-30T08:56:29;30.70;56.90
16402;DHT22;8310;44.626;11.176;2022-08-30T08:58:57;30.70;57.10
16402;DHT22;8310;44.626;11.176;2022-08-30T09:01:27;30.80;57.30
16402;DHT22;8310;44.626;11.176;2022-08-30T09:03:57;31.00;57.40
16402;DHT22;8310;44.626;11.176;2022-08-30T09:06:47;31.10;57.30
16402;DHT22;8310;44.626;11.176;2022-08-30T09:09:19;31.20;57.10
16402;DHT22;8310;44.626;11.176;2022-08-30T09:11:48;31.30;57.00
16402;DHT22;8310;44.626;11.176;2022-08-30T09:14:19;31.30;57.00
16402;DHT22;8310;44.626;11.176;2022-08-30T09:16:51;31.40;57.10
16402;DHT22;8310;44.626;11.176;2022-08-30T09:19:31;31.40;57.20
16402;DHT22;8310;44.626;11.176;2022-08-30T09:22:05;31.50;56.90
16402;DHT22;8310;44.626;11.176;2022-08-30T09:24:38;31.50;56.70
16402;DHT22;8310;44.626;11.176;2022-08-30T09:27:22;31.50;56.90
16402;DHT22;8310;44.626;11.176;2022-08-30T09:29:53;31.60;57.00
16402;DHT22;8310;44.626;11.176;2022-08-30T09:32:26;31.60;56.50
16402;DHT22;8310;44.626;11.176;2022-08-30T09:35:00;31.60;56.60
16402;DHT22;8310;44.626;11.176;2022-08-30T09:37:45;31.70;56.90
16402;DHT22;8310;44.626;11.176;2022-08-30T09:40:21;31.80;57.10
16402;DHT22;8310;44.626;11.176;2022-08-30T09:43:01;31.90;57.20
16402;DHT22;8310;44.626;11.176;2022-08-30T09:45:32;32.10;57.30
16402;DHT22;8310;44.626;11.176;2022-08-30T09:48:02;32.20;57.50
16402;DHT22;8310;44.626;11.176;2022-08-30T09:50:50;32.40;57.40
16402;DHT22;8310;44.626;11.176;2022-08-30T09:53:28;32.50;57.40
16402;DHT22;8310;44.626;11.176;2022-08-30T09:56:04;32.60;57.50
16402;DHT22;8310;44.626;11.176;2022-08-30T09:58:47;32.70;57.60
16402;DHT22;8310;44.626;11.176;2022-08-30T10:01:22;32.90;57.30
16402;DHT22;8310;44.626;11.176;2022-08-30T10:03:56;32.90;56.80
16402;DHT22;8310;44.626;11.176;2022-08-30T10:06:30;32.80;56.80
16402;DHT22;8310;44.626;11.176;2022-08-30T10:09:10;32.90;57.20
16402;DHT22;8310;44.626;11.176;2022-08-30T10:11:45;33.00;57.30
16402;DHT22;8310;44.626;11.176;2022-08-30T10:14:33;33.10;57.40
16402;DHT22;8310;44.626;11.176;2022-08-30T10:17:08;33.30;57.30
16402;DHT22;8310;44.626;11.176;2022-08-30T10:19:49;33.30;56.90
16402;DHT22;8310;44.626;11.176;2022-08-30T10:22:25;33.30;56.50
16402;DHT22;8310;44.626;11.176;2022-08-30T10:25:02;33.20;56.60
16402;DHT22;8310;44.626;11.176;2022-08-30T10:27:35;33.20;56.80
16402;DHT22;8310;44.626;11.176;2022-08-30T10:30:06;33.30;57.70
16402;DHT22;8310;44.626;11.176;2022-08-30T10:32:40;33.30;56.90
16402;DHT22;8310;44.626;11.176;2022-08-30T10:35:12;33.40;57.10
16402;DHT22;8310;44.626;11.176;2022-08-30T10:37:45;33.50;57.20
16402;DHT22;8310;44.626;11.176;2022-08-30T10:40:24;33.60;57.20
16402;DHT22;8310;44.626;11.176;2022-08-30T10:43:15;33.70;57.10
16402;DHT22;8310;44.626;11.176;2022-08-30T10:45:47;33.80;57.00
16402;DHT22;8310;44.626;11.176;2022-08-30T10:48:22;33.80;57.00
16402;DHT22;8310;44.626;11.176;2022-08-30T10:50:53;33.90;57.10
16402;DHT22;8310;44.626;11.176;2022-08-30T10:53:26;34.00;57.10
16402;DHT22;8310;44.626;11.176;2022-08-30T10:56:01;34.10;57.10
16402;DHT22;8310;44.626;11.176;2022-08-30T10:58:29;34.20;57.10
16402;DHT22;8310;44.626;11.176;2022-08-30T11:01:23;34.20;56.90
16402;DHT22;8310;44.626;11.176;2022-08-30T11:07:00;34.30;56.80
16402;DHT22;8310;44.626;11.176;2022-08-30T11:09:46;34.30;56.80
16402;DHT22;8310;44.626;11.176;2022-08-30T11:12:24;34.40;56.60
16402;DHT22;8310;44.626;11.176;2022-08-30T11:17:46;34.30;56.10
16402;DHT22;8310;44.626;11.176;2022-08-30T11:20:31;34.20;56.20
16402;DHT22;8310;44.626;11.176;2022-08-30T11:23:24;34.30;56.50
16402;DHT22;8310;44.626;11.176;2022-08-30T11:25:54;34.40;56.70
16402;DHT22;8310;44.626;11.176;2022-08-30T11:31:36;34.50;56.60
16402;DHT22;8310;44.626;11.176;2022-08-30T11:34:05;34.60;56.50
16402;DHT22;8310;44.626;11.176;2022-08-30T11:37:05;34.60;56.50
16402;DHT22;8310;44.626;11.176;2022-08-30T11:40:04;34.70;56.60
16402;DHT22;8310;44.626;11.176;2022-08-30T11:42:41;34.70;56.80
16402;DHT22;8310;44.626;11.176;2022-08-30T11:45:41;34.90;56.80
16402;DHT22;8310;44.626;11.176;2022-08-30T11:51:42;35.00;56.50
16402;DHT22;8310;44.626;11.176;2022-08-30T11:54:24;35.00;56.50
16402;DHT22;8310;44.626;11.176;2022-08-30T11:57:03;35.10;56.50
16402;DHT22;8310;44.626;11.176;2022-08-30T11:59:42;35.20;56.50
16402;DHT22;8310;44.626;11.176;2022-08-30T12:02:44;35.20;56.30
16402;DHT22;8310;44.626;11.176;2022-08-30T12:05:47;35.20;56.30
16402;DHT22;8310;44.626;11.176;2022-08-30T12:08:57;35.30;56.40
16402;DHT22;8310;44.626;11.176;2022-08-30T12:11:55;35.30;56.10
16402;DHT22;8310;44.626;11.176;2022-08-30T12:14:46;35.30;56.20
16402;DHT22;8310;44.626;11.176;2022-08-30T12:17:29;35.20;55.70
16402;DHT22;8310;44.626;11.176;2022-08-30T12:20:22;35.10;55.30
16402;DHT22;8310;44.626;11.176;2022-08-30T12:22:51;35.00;55.20
16402;DHT22;8310;44.626;11.176;2022-08-30T12:25:26;34.80;55.10
16402;DHT22;8310;44.626;11.176;2022-08-30T12:28:08;34.70;54.80
16402;DHT22;8310;44.626;11.176;2022-08-30T12:30:36;34.50;54.60
16402;DHT22;8310;44.626;11.176;2022-08-30T12:33:09;34.40;54.40
16402;DHT22;8310;44.626;11.176;2022-08-30T12:35:42;34.10;54.20
16402;DHT22;8310;44.626;11.176;2022-08-30T12:38:18;34.00;54.40
16402;DHT22;8310;44.626;11.176;2022-08-30T12:40:53;33.90;54.70
16402;DHT22;8310;44.626;11.176;2022-08-30T12:43:24;34.00;55.10
16402;DHT22;8310;44.626;11.176;2022-08-30T12:45:55;34.00;55.30
16402;DHT22;8310;44.626;11.176;2022-08-30T12:48:23;34.10;55.50
16402;DHT22;8310;44.626;11.176;2022-08-30T12:50:54;34.30;55.60
16402;DHT22;8310;44.626;11.176;2022-08-30T12:53:25;34.40;55.70
16402;DHT22;8310;44.626;11.176;2022-08-30T12:55:58;34.50;55.80
16402;DHT22;8310;44.626;11.176;2022-08-30T12:58:39;34.70;56.00
16402;DHT22;8310;44.626;11.176;2022-08-30T13:01:24;34.80;56.10
16402;DHT22;8310;44.626;11.176;2022-08-30T13:04:00;35.00;56.20
16402;DHT22;8310;44.626;11.176;2022-08-30T13:06:41;35.20;56.20
16402;DHT22;8310;44.626;11.176;2022-08-30T13:09:21;35.30;56.10
16402;DHT22;8310;44.626;11.176;2022-08-30T13:11:54;35.40;56.10
16402;DHT22;8310;44.626;11.176;2022-08-30T13:14:37;35.60;55.90
16402;DHT22;8310;44.626;11.176;2022-08-30T13:17:07;35.70;55.90
16402;DHT22;8310;44.626;11.176;2022-08-30T13:19:37;35.60;55.60
16402;DHT22;8310;44.626;11.176;2022-08-30T13:22:21;35.70;55.70
16402;DHT22;8310;44.626;11.176;2022-08-30T13:24:49;35.70;55.80
16402;DHT22;8310;44.626;11.176;2022-08-30T13:27:19;35.80;55.80
16402;DHT22;8310;44.626;11.176;2022-08-30T13:29:49;35.90;55.80
16402;DHT22;8310;44.626;11.176;2022-08-30T13:32:17;35.90;55.70
16402;DHT22;8310;44.626;11.176;2022-08-30T13:34:45;36.00;55.60
16402;DHT22;8310;44.626;11.176;2022-08-30T13:37:15;36.00;55.60
16402;DHT22;8310;44.626;11.176;2022-08-30T13:39:44;36.00;55.40
16402;DHT22;8310;44.626;11.176;2022-08-30T13:42:12;36.10;55.40
16402;DHT22;8310;44.626;11.176;2022-08-30T13:44:41;36.00;54.90
16402;DHT22;8310;44.626;11.176;2022-08-30T13:47:09;35.90;55.10
16402;DHT22;8310;44.626;11.176;2022-08-30T13:49:38;35.80;54.40
16402;DHT22;8310;44.626;11.176;2022-08-30T13:52:08;35.70;54.40
16402;DHT22;8310;44.626;11.176;2022-08-30T13:54:35;35.50;54.30
16402;DHT22;8310;44.626;11.176;2022-08-30T13:57:02;35.40;54.20
16402;DHT22;8310;44.626;11.176;2022-08-30T13:59:31;35.40;54.30
16402;DHT22;8310;44.626;11.176;2022-08-30T14:02:01;35.30;54.20
16402;DHT22;8310;44.626;11.176;2022-08-30T14:04:28;35.30;54.20
16402;DHT22;8310;44.626;11.176;2022-08-30T14:06:56;35.10;54.10
16402;DHT22;8310;44.626;11.176;2022-08-30T14:09:23;35.10;54.00
16402;DHT22;8310;44.626;11.176;2022-08-30T14:11:51;35.00;53.90
16402;DHT22;8310;44.626;11.176;2022-08-30T14:14:18;34.90;53.90
16402;DHT22;8310;44.626;11.176;2022-08-30T14:16:45;34.90;53.90
16402;DHT22;8310;44.626;11.176;2022-08-30T14:19:16;34.80;53.80
16402;DHT22;8310;44.626;11.176;2022-08-30T14:21:45;34.80;53.80
16402;DHT22;8310;44.626;11.176;2022-08-30T14:24:15;34.70;53.80
16402;DHT22;8310;44.626;11.176;2022-08-30T14:26:46;34.60;53.70
16402;DHT22;8310;44.626;11.176;2022-08-30T14:29:16;34.60;53.70
16402;DHT22;8310;44.626;11.176;2022-08-30T14:31:45;34.50;53.60
16402;DHT22;8310;44.626;11.176;2022-08-30T14:34:17;34.40;53.50
16402;DHT22;8310;44.626;11.176;2022-08-30T14:36:45;34.40;53.50
16402;DHT22;8310;44.626;11.176;2022-08-30T14:39:15;34.30;53.40
16402;DHT22;8310;44.626;11.176;2022-08-30T14:41:45;34.30;53.50
16402;DHT22;8310;44.626;11.176;2022-08-30T14:44:14;34.20;53.40
16402;DHT22;8310;44.626;11.176;2022-08-30T14:46:43;34.10;53.30
16402;DHT22;8310;44.626;11.176;2022-08-30T14:49:12;34.10;53.30
16402;DHT22;8310;44.626;11.176;2022-08-30T14:51:42;34.00;53.20
16402;DHT22;8310;44.626;11.176;2022-08-30T14:54:14;33.90;53.20
16402;DHT22;8310;44.626;11.176;2022-08-30T14:56:42;33.90;53.20
16402;DHT22;8310;44.626;11.176;2022-08-30T14:59:10;33.80;53.10
16402;DHT22;8310;44.626;11.176;2022-08-30T15:01:38;33.80;53.10
16402;DHT22;8310;44.626;11.176;2022-08-30T15:04:07;33.70;53.10
16402;DHT22;8310;44.626;11.176;2022-08-30T15:06:37;33.60;52.90
16402;DHT22;8310;44.626;11.176;2022-08-30T15:09:09;33.60;52.80
16402;DHT22;8310;44.626;11.176;2022-08-30T15:11:37;33.40;52.60
16402;DHT22;8310;44.626;11.176;2022-08-30T15:14:05;33.20;52.30
16402;DHT22;8310;44.626;11.176;2022-08-30T15:16:37;32.90;51.90
16402;DHT22;8310;44.626;11.176;2022-08-30T15:19:06;32.50;51.30
16402;DHT22;8310;44.626;11.176;2022-08-30T15:21:35;32.00;51.40
16402;DHT22;8310;44.626;11.176;2022-08-30T15:24:06;31.20;51.10
16402;DHT22;8310;44.626;11.176;2022-08-30T15:26:34;30.50;51.50
16402;DHT22;8310;44.626;11.176;2022-08-30T15:29:07;29.60;50.20
16402;DHT22;8310;44.626;11.176;2022-08-30T15:31:35;28.60;50.40
16402;DHT22;8310;44.626;11.176;2022-08-30T15:34:03;27.80;49.50
16402;DHT22;8310;44.626;11.176;2022-08-30T15:36:31;26.80;48.60
16402;DHT22;8310;44.626;11.176;2022-08-30T15:38:58;25.90;48.10
16402;DHT22;8310;44.626;11.176;2022-08-30T15:41:28;25.40;49.40
16402;DHT22;8310;44.626;11.176;2022-08-30T15:44:12;25.30;49.40
16402;DHT22;8310;44.626;11.176;2022-08-30T15:46:43;25.00;49.50
16402;DHT22;8310;44.626;11.176;2022-08-30T15:49:16;24.90;49.80
16402;DHT22;8310;44.626;11.176;2022-08-30T15:51:51;24.80;49.80
16402;DHT22;8310;44.626;11.176;2022-08-30T15:54:23;24.70;50.00
16402;DHT22;8310;44.626;11.176;2022-08-30T15:57:05;24.60;49.90
16402;DHT22;8310;44.626;11.176;2022-08-30T15:59:33;24.60;50.20
16402;DHT22;8310;44.626;11.176;2022-08-30T16:02:03;24.60;50.50
16402;DHT22;8310;44.626;11.176;2022-08-30T16:04:41;24.60;50.50
16402;DHT22;8310;44.626;11.176;2022-08-30T16:07:08;24.70;50.60
16402;DHT22;8310;44.626;11.176;2022-08-30T16:09:36;24.70;50.70